Time;durP1;ratioP1;P1;durP2;ratioP2;P2;SDS_P1;SDS_P2;PMS_P1;PMS_P2;Temp;Humidity;BMP_temperature;BMP_pressure;BME280_temperature;BME280_humidity;BME280_pressure;Samples;Min_cycle;Max_cycle;Signal;HPM_P1;HPM_P2
2021/11/25 00:00:23;;;;;;;;;;;;;;;-1.07;100.00;95216.00;10463500;28;2092;-74
2021/11/25 00:05:27;;;;;;;;;;;;;;;-0.97;100.00;95216.28;10472521;28;1949;-74
2021/11/25 00:10:30;;;;;;;;;;;;;;;-0.78;100.00;95203.97;10463756;28;2017;-72
2021/11/25 00:15:34;;;;;;;;;;;;;;;-0.81;100.00;95193.84;10444627;28;1873;-72
2021/11/25 00:20:37;;;;;;;;;;;;;;;-1.04;100.00;95191.00;10431857;28;1814;-72
2021/11/25 00:25:40;;;;;;;;;;;;;;;-0.93;100.00;95175.28;10456128;28;1945;-73
2021/11/25 00:30:43;;;;;;;;;;;;;;;-0.71;100.00;95177.50;10463907;28;1931;-72
2021/11/25 00:35:47;;;;;;;;;;;;;;;-0.99;100.00;95172.69;10477656;28;1960;-72
2021/11/25 00:40:50;;;;;;;;;;;;;;;-1.22;100.00;95163.53;10470701;28;1889;-71
2021/11/25 00:45:53;;;;;;;;;;;;;;;-1.01;100.00;95169.47;10469537;28;2351;-72
2021/11/25 00:50:56;;;;;;;;;;;;;;;-1.00;100.00;95163.97;10473209;28;1977;-72
2021/11/25 00:56:00;;;;;;;;;;;;;;;-1.08;100.00;95161.63;10475961;28;1862;-72
2021/11/25 01:01:03;;;;;;;;;;;;;;;-0.84;100.00;95152.84;10460273;28;1901;-72
2021/11/25 01:06:07;;;;;;;;;;;;;;;-0.60;100.00;95167.03;10466843;28;1855;-72
2021/11/25 01:11:10;;;;;;;;;;;;;;;-0.97;100.00;95152.19;10462272;28;1965;-73
2021/11/25 01:16:13;;;;;;;;;;;;;;;-1.15;100.00;95145.03;10457608;28;1862;-72
2021/11/25 01:21:17;;;;;;;;;;;;;;;-1.12;100.00;95148.06;10442467;28;1900;-72
2021/11/25 01:26:20;;;;;;;;;;;;;;;-1.13;100.00;95138.53;10448277;28;1866;-72
2021/11/25 01:31:23;;;;;;;;;;;;;;;-0.87;100.00;95139.31;10467463;28;1975;-72
2021/11/25 01:36:27;;;;;;;;;;;;;;;-0.73;100.00;95129.44;10457736;28;2082;-72
2021/11/25 01:41:30;;;;;;;;;;;;;;;-0.59;100.00;95130.91;10449261;28;1877;-72
2021/11/25 01:46:33;;;;;;;;;;;;;;;-0.59;100.00;95126.41;10461252;28;1940;-72
2021/11/25 01:51:37;;;;;;;;;;;;;;;-0.46;100.00;95109.63;10446182;28;2217;-71
2021/11/25 01:56:40;;;;;;;;;;;;;;;-0.62;100.00;95118.94;10466076;28;1565;-72
2021/11/25 02:01:43;;;;;;;;;;;;;;;-0.69;100.00;95104.22;10458099;28;1907;-73
2021/11/25 02:06:47;;;;;;;;;;;;;;;-0.76;100.00;95098.19;10447674;28;1896;-73
2021/11/25 02:11:50;;;;;;;;;;;;;;;-0.78;100.00;95077.28;10461768;28;1999;-71
2021/11/25 02:16:54;;;;;;;;;;;;;;;-1.07;100.00;95067.47;10463005;28;1893;-71
2021/11/25 02:21:57;;;;;;;;;;;;;;;-1.02;100.00;95065.75;10464551;28;1712;-71
2021/11/25 02:27:01;;;;;;;;;;;;;;;-0.86;100.00;95065.19;10463243;28;2054;-71
2021/11/25 02:32:04;;;;;;;;;;;;;;;-0.96;100.00;95075.44;10459298;28;1979;-70
2021/11/25 02:37:07;;;;;;;;;;;;;;;-0.95;100.00;95069.16;10461939;28;1775;-70
2021/11/25 02:42:11;;;;;;;;;;;;;;;-0.97;100.00;95057.19;10462022;28;2015;-71
2021/11/25 02:47:15;;;;;;;;;;;;;;;-0.76;100.00;95037.47;10464982;28;1880;-72
2021/11/25 02:52:18;;;;;;;;;;;;;;;-0.89;100.00;95017.31;10447237;28;1975;-71
2021/11/25 02:57:21;;;;;;;;;;;;;;;-0.90;100.00;95019.16;10461233;28;1829;-72
2021/11/25 03:02:24;;;;;;;;;;;;;;;-1.03;100.00;95034.34;10461117;28;1924;-71
2021/11/25 03:07:28;;;;;;;;;;;;;;;-0.79;100.00;95037.94;10455203;28;1881;-71
2021/11/25 03:12:32;;;;;;;;;;;;;;;-0.82;100.00;95024.16;10443953;28;1940;-72
2021/11/25 03:17:35;;;;;;;;;;;;;;;-0.65;100.00;95034.91;10454382;28;1885;-72
2021/11/25 03:22:38;;;;;;;;;;;;;;;-0.56;100.00;95032.78;10452611;28;1749;-71
2021/11/25 03:27:41;;;;;;;;;;;;;;;-0.37;100.00;95036.22;10457039;28;1869;-71
2021/11/25 03:32:45;;;;;;;;;;;;;;;-0.39;100.00;95030.31;10455924;28;1910;-72
2021/11/25 03:37:48;;;;;;;;;;;;;;;-0.33;100.00;95021.50;10455306;28;1866;-71
2021/11/25 03:42:51;;;;;;;;;;;;;;;-0.21;100.00;95018.91;10461422;28;1901;-71
2021/11/25 03:47:54;;;;;;;;;;;;;;;-0.21;100.00;95014.44;10446497;28;1881;-71
2021/11/25 03:52:58;;;;;;;;;;;;;;;-0.31;100.00;95016.84;10451985;28;1914;-71
2021/11/25 03:58:01;;;;;;;;;;;;;;;-0.39;100.00;95006.56;10450734;28;1939;-71
2021/11/25 04:03:04;;;;;;;;;;;;;;;-0.24;100.00;95004.34;10452110;28;2489;-72
2021/11/25 04:08:08;;;;;;;;;;;;;;;-0.22;100.00;94999.63;10446627;28;2085;-72
2021/11/25 04:13:11;;;;;;;;;;;;;;;-0.17;100.00;94993.69;10455971;28;2098;-71
2021/11/25 04:18:15;;;;;;;;;;;;;;;-0.25;100.00;94986.88;10447168;28;2055;-72
2021/11/25 04:23:18;;;;;;;;;;;;;;;-0.20;100.00;94979.06;10440316;28;1986;-72
2021/11/25 04:28:21;;;;;;;;;;;;;;;-0.49;100.00;94985.19;10447914;28;2007;-72
2021/11/25 04:38:46;;;;;;;;;;;;;;;-0.67;100.00;94978.91;10453360;28;2079;-72
2021/11/25 04:43:49;;;;;;;;;;;;;;;-0.73;100.00;94971.06;10481660;28;2096;-72
2021/11/25 04:48:52;;;;;;;;;;;;;;;-0.74;100.00;94965.00;10459787;28;2123;-72
2021/11/25 04:53:56;;;;;;;;;;;;;;;-0.66;100.00;94951.47;10457781;28;2003;-71
2021/11/25 04:59:00;;;;;;;;;;;;;;;-0.86;100.00;94956.22;10464285;28;1974;-73
2021/11/25 05:04:03;;;;;;;;;;;;;;;-0.83;100.00;94934.66;10452036;28;2065;-72
2021/11/25 05:09:06;;;;;;;;;;;;;;;-0.77;100.00;94946.97;10453255;28;1945;-71
2021/11/25 05:14:10;;;;;;;;;;;;;;;-0.96;100.00;94953.28;10454324;28;1971;-72
2021/11/25 05:19:16;;;;;;;;;;;;;;;-0.74;100.00;94946.53;10447362;28;1842;-71
2021/11/25 05:24:19;;;;;;;;;;;;;;;-0.93;100.00;94952.88;10446136;28;1928;-74
2021/11/25 05:29:23;;;;;;;;;;;;;;;-1.05;100.00;94944.06;10465275;28;1952;-73
2021/11/25 05:34:26;;;;;;;;;;;;;;;-0.94;100.00;94938.88;10460321;28;2229;-72
2021/11/25 05:39:30;;;;;;;;;;;;;;;-1.11;100.00;94943.94;10468398;28;1873;-73
2021/11/25 05:44:33;;;;;;;;;;;;;;;-1.06;100.00;94958.28;10454262;28;1940;-71
2021/11/25 05:49:37;;;;;;;;;;;;;;;-1.13;100.00;94956.53;10450135;28;1920;-72
2021/11/25 05:54:40;;;;;;;;;;;;;;;-1.21;100.00;94951.56;10434170;28;1918;-72
2021/11/25 05:59:43;;;;;;;;;;;;;;;-1.18;100.00;94935.28;10452523;28;2243;-73
2021/11/25 06:04:47;;;;;;;;;;;;;;;-1.15;100.00;94934.84;10444731;28;1940;-71
2021/11/25 06:09:50;;;;;;;;;;;;;;;-1.03;100.00;94931.47;10455072;28;1754;-70
2021/11/25 06:14:53;;;;;;;;;;;;;;;-0.91;100.00;94940.25;10457975;28;1898;-70
2021/11/25 06:19:57;;;;;;;;;;;;;;;-1.06;100.00;94930.09;10455277;28;1909;-70
2021/11/25 06:25:00;;;;;;;;;;;;;;;-1.03;100.00;94937.53;10452092;28;2010;-75
2021/11/25 06:30:03;;;;;;;;;;;;;;;-0.72;100.00;94923.34;10461700;28;1845;-77
2021/11/25 06:35:09;;;;;;;;;;;;;;;-0.47;100.00;94925.03;10457904;28;1984;-77
2021/11/25 06:40:13;;;;;;;;;;;;;;;-0.44;100.00;94921.97;10444485;28;2120;-77
2021/11/25 06:45:16;;;;;;;;;;;;;;;-0.47;100.00;94938.25;10460087;28;1925;-77
2021/11/25 06:50:19;;;;;;;;;;;;;;;-0.43;100.00;94944.69;10456772;28;1885;-78
2021/11/25 06:55:23;;;;;;;;;;;;;;;-0.60;100.00;94931.31;10461652;28;2015;-78
2021/11/25 07:00:26;;;;;;;;;;;;;;;-0.85;100.00;94944.63;10467803;28;1604;-78
2021/11/25 07:05:30;;;;;;;;;;;;;;;-0.74;100.00;94941.25;10473646;28;1937;-78
2021/11/25 07:10:33;;;;;;;;;;;;;;;-0.64;100.00;94948.63;10455329;28;1859;-77
2021/11/25 07:15:37;;;;;;;;;;;;;;;-0.73;100.00;94944.69;10445864;28;1963;-76
2021/11/25 07:20:40;;;;;;;;;;;;;;;-0.80;100.00;94942.13;10445869;28;1964;-78
2021/11/25 07:25:43;;;;;;;;;;;;;;;-0.53;100.00;94939.94;10459225;28;2066;-79
2021/11/25 07:30:47;;;;;;;;;;;;;;;-0.27;100.00;94936.09;10471253;28;2246;-78
2021/11/25 07:35:50;;;;;;;;;;;;;;;0.10;100.00;94931.47;10461346;28;1950;-79
2021/11/25 07:40:54;;;;;;;;;;;;;;;0.15;100.00;94907.00;10446386;28;1827;-76
2021/11/25 07:45:57;;;;;;;;;;;;;;;0.34;100.00;94897.09;10460794;28;1469;-75
2021/11/25 07:51:00;;;;;;;;;;;;;;;0.29;100.00;94897.78;10459339;28;1811;-75
2021/11/25 07:56:04;;;;;;;;;;;;;;;0.16;100.00;94898.03;10481206;28;1987;-74
2021/11/25 08:01:06;;;;;;;;;;;1.00;99.90;;;0.13;100.00;94901.94;10477592;28;1961;-74
2021/11/25 08:06:09;;;;;;;;;;;1.20;99.90;;;-0.07;100.00;94894.31;10479292;28;1815;-75
2021/11/25 08:11:12;;;;;;;;;;;1.20;99.90;;;0.14;100.00;94892.19;10459902;28;1862;-73
2021/11/25 08:16:15;;;;;;;;;;;1.20;99.90;;;0.10;100.00;94899.75;10466468;28;1914;-75
2021/11/25 08:21:19;;;;;;;;;;;1.20;99.90;;;-0.08;100.00;94900.66;10453914;28;1912;-74
2021/11/25 08:26:22;;;;;;;;;;;1.20;99.90;;;0.01;100.00;94890.56;10461718;28;1887;-75
2021/11/25 08:31:25;;;;;;;;;;;1.10;99.90;;;0.36;100.00;94887.91;10464982;28;1846;-75
2021/11/25 08:36:28;;;;;;;;;;;1.30;99.90;;;0.40;100.00;94904.13;10446202;28;1957;-74
2021/11/25 08:41:31;;;;;;;;;;;1.40;99.90;;;0.44;100.00;94906.03;10453194;28;1941;-75
2021/11/25 08:46:34;;;;;;;;;;;1.40;99.90;;;0.36;100.00;94903.75;10458604;28;1908;-75
2021/11/25 08:51:37;;;;;;;;;;;1.50;99.90;;;0.59;100.00;94912.72;10463323;28;2273;-75
2021/11/25 08:56:40;;;;;;;;;;;1.60;99.90;;;0.42;100.00;94910.78;10484239;28;1985;-75
2021/11/25 09:01:43;;;;;;;;;;;1.70;99.90;;;0.50;100.00;94913.06;10459506;28;1925;-74
2021/11/25 09:06:46;;;;;;;;;;;1.70;99.90;;;0.41;100.00;94908.38;10461339;28;1916;-74
2021/11/25 09:11:49;;;;;;;;;;;1.60;99.90;;;0.25;100.00;94912.50;10458750;28;1952;-73
2021/11/25 09:22:08;;;;;;;;;;;1.60;99.90;;;1.16;100.00;94908.31;10435457;28;1780;-72
2021/11/25 09:27:11;;;;;;;;;;;1.90;99.90;;;1.52;98.37;94907.13;10393047;28;1876;-73
2021/11/25 09:32:14;;;;;;;;;;;2.20;99.90;;;1.71;96.67;94915.66;10397923;28;2006;-72
2021/11/25 09:37:17;;;;;;;;;;;2.50;99.90;;;1.96;93.87;94909.97;10387457;28;1996;-73
2021/11/25 09:42:20;;;;;;;;;;;2.70;99.90;;;1.73;96.29;94918.91;10394855;28;1965;-72
2021/11/25 09:47:23;;;;;;;;;;;2.70;99.90;;;2.17;93.63;94916.44;10395343;28;1917;-74
2021/11/25 09:52:26;;;;;;;;;;;;;;;2.45;90.92;94910.19;10388809;28;1746;-74
2021/11/25 09:57:29;;;;;;;;;;;2.70;99.90;;;1.43;95.03;94911.19;10393581;28;1921;-73
2021/11/25 10:02:32;;;;;;;;;;;2.70;99.90;;;1.65;94.28;94898.06;10386943;28;1943;-78
2021/11/25 10:07:36;;;;;;;;;;;2.70;99.90;;;2.05;93.16;94895.28;10388741;28;1896;-73
2021/11/25 10:12:39;;;;;;;;;;;2.80;99.90;;;1.71;93.21;94898.97;10397364;28;1994;-74
2021/11/25 10:17:42;;;;;;;;;;;2.80;99.90;;;1.39;95.56;94883.56;10384130;28;1926;-74
2021/11/25 10:22:45;;;;;;;;;;;2.50;99.90;;;1.54;93.13;94872.47;10386911;28;1983;-74
2021/11/25 10:27:48;;;;;;;;;;;2.60;99.90;;;2.33;92.14;94888.28;10395568;28;1897;-73
2021/11/25 10:32:51;;;;;;;;;;;2.90;99.90;;;1.78;92.96;94873.09;10364901;28;1933;-73
2021/11/25 10:38:20;;;;;;;;;;;3.00;99.90;;;1.80;92.42;94861.25;10366845;28;1922;-74
2021/11/25 10:43:18;;;;;;;;;;;3.00;99.90;;;2.58;89.84;94862.09;10359527;28;1924;-74
2021/11/25 10:48:21;;;;;;;;;;;;;;;3.15;85.29;94845.78;10358903;28;1881;-74
2021/11/25 10:53:24;;;;;;;;;;;;;;;2.75;86.48;94850.63;10358787;28;1913;-74
2021/11/25 10:58:27;;;;;;;;;;;3.70;99.90;;;2.36;88.70;94842.72;10363028;28;1929;-74
2021/11/25 11:03:30;;;;;;;;;;;3.60;99.90;;;2.62;89.10;94831.38;10359181;28;1866;-74
2021/11/25 11:08:33;;;;;;;;;;;3.40;99.90;;;1.90;90.03;94820.84;10359054;28;1916;-73
2021/11/25 11:13:42;;;;;;;;;;;3.30;99.90;;;1.98;91.67;94830.25;10330168;28;1913;-73
2021/11/25 11:18:46;;;;;;;;;;;3.10;99.90;;;1.82;92.48;94832.66;10346787;28;1914;-73
2021/11/25 11:23:49;;;;;;;;;;;3.10;99.90;;;1.79;91.84;94837.66;10362233;28;1896;-72
2021/11/25 11:28:52;;;;;;;;;;;3.10;99.90;;;1.65;93.90;94836.34;10360147;28;2018;-72
2021/11/25 11:33:55;;;;;;;;;;;3.00;99.90;;;1.43;94.05;94839.69;10356029;28;1952;-73
2021/11/25 11:38:58;;;;;;;;;;;2.90;99.90;;;1.67;94.98;94831.63;10367257;28;1995;-74
2021/11/25 11:44:02;;;;;;;;;;;2.70;99.90;;;2.15;92.37;94821.19;10358895;28;1913;-74
2021/11/25 11:49:06;;;;;;;;;;;3.00;99.90;;;1.74;93.81;94819.00;10358558;28;1963;-74
2021/11/25 11:54:09;;;;;;;;;;;2.90;99.90;;;1.76;93.91;94817.72;10358065;28;1921;-74
2021/11/25 11:59:12;;;;;;;;;;;2.90;99.90;;;1.77;93.47;94818.50;10364351;28;2040;-73
2021/11/25 12:04:15;;;;;;;;;;;2.90;99.90;;;1.47;95.75;94800.31;10360827;28;2038;-74
2021/11/25 12:09:18;;;;;;;;;;;2.70;99.90;;;1.25;97.92;94794.91;10364635;28;2039;-74
2021/11/25 12:14:21;;;;;;;;;;;2.40;99.90;;;0.84;100.00;94790.75;10360749;28;2054;-74
2021/11/25 12:19:23;;;;;;;;;;;2.10;99.90;;;0.63;100.00;94787.69;10356630;28;2007;-74
2021/11/25 12:24:27;;;;;;;;;;;1.90;99.90;;;0.69;100.00;94783.31;10365872;28;1951;-74
2021/11/25 12:29:30;;;;;;;;;;;1.80;99.90;;;0.83;100.00;94760.84;10356397;28;2066;-73
2021/11/25 12:34:33;;;;;;;;;;;1.90;99.90;;;0.69;100.00;94765.59;10360972;28;2034;-73
2021/11/25 12:39:36;;;;;;;;;;;1.80;99.90;;;0.66;100.00;94765.28;10360140;28;1983;-73
2021/11/25 12:44:39;;;;;;;;;;;1.80;99.90;;;0.65;100.00;94756.56;10361318;28;2010;-74
2021/11/25 12:49:41;;;;;;;;;;;1.90;99.90;;;0.64;100.00;94764.72;10359304;28;1972;-74
2021/11/25 12:54:44;;;;;;;;;;;1.80;99.90;;;1.04;100.00;94767.28;10362174;28;2042;-72
2021/11/25 12:59:47;;;;;;;;;;;1.90;99.90;;;1.25;100.00;94753.34;10363848;28;1997;-72
2021/11/25 13:04:50;;;;;;;;;;;2.10;99.90;;;0.89;100.00;94765.19;10363482;28;1928;-74
2021/11/25 13:09:53;;;;;;;;;;;2.20;99.90;;;1.37;99.94;94761.22;10354741;28;1952;-74
2021/11/25 13:14:56;;;;;;;;;;;2.30;99.90;;;0.74;100.00;94772.84;10360961;28;1964;-74
2021/11/25 13:19:59;;;;;;;;;;;2.10;99.90;;;0.07;100.00;94751.44;10360521;28;1989;-72
2021/11/25 13:25:03;;;;;;;;;;;1.60;99.90;;;0.04;100.00;94725.47;10367538;28;2095;-74
2021/11/25 13:30:08;;;;;;;;;;;1.30;99.90;;;0.24;100.00;94758.38;10366255;28;2181;-73
2021/11/25 13:35:12;;;;;;;;;;;1.30;99.90;;;-0.19;100.00;94744.78;10365117;28;2319;-72
2021/11/25 13:40:15;;;;;;;;;;;1.20;99.90;;;-0.31;100.00;94755.38;10367750;28;1906;-74
2021/11/25 13:45:21;;;;;;;;;;;1.00;99.90;;;-0.16;100.00;94763.63;10370586;28;1898;-74
2021/11/25 13:50:24;;;;;;;;;;;1.00;99.90;;;-0.06;100.00;94761.22;10363672;28;2190;-74
2021/11/25 13:55:27;;;;;;;;;;;1.10;99.90;;;0.05;100.00;94753.50;10363162;28;1711;-75
2021/11/25 14:00:30;;;;;;;;;;;1.20;99.90;;;0.02;100.00;94762.69;10366030;28;1968;-73
2021/11/25 14:05:33;;;;;;;;;;;1.20;99.90;;;0.11;100.00;94757.84;10365868;28;1396;-74
2021/11/25 14:10:36;;;;;;;;;;;1.30;99.90;;;-0.09;100.00;94750.31;10368972;28;1316;-72
2021/11/25 14:15:43;;;;;;;;;;;1.20;99.90;;;0.11;100.00;94765.78;10365201;28;1905;-74
2021/11/25 14:20:46;;;;;;;;;;;1.20;99.90;;;0.12;100.00;94743.59;10365378;28;1914;-74
2021/11/25 14:25:50;;;;;;;;;;;1.30;99.90;;;0.14;100.00;94746.84;10372998;28;1959;-73
2021/11/25 14:30:53;;;;;;;;;;;1.30;99.90;;;0.34;100.00;94757.81;10366553;28;1830;-74
2021/11/25 14:35:56;;;;;;;;;;;1.40;99.90;;;0.06;100.00;94763.81;10362350;28;1993;-73
2021/11/25 14:40:59;;;;;;;;;;;1.40;99.90;;;0.06;100.00;94760.38;10365037;28;1940;-74
2021/11/25 14:46:02;;;;;;;;;;;1.20;99.90;;;0.08;100.00;94775.00;10359926;28;2153;-75
2021/11/25 14:51:05;;;;;;;;;;;1.20;99.90;;;0.03;100.00;94764.31;10363638;28;1894;-74
2021/11/25 14:56:07;;;;;;;;;;;1.20;99.90;;;-0.12;100.00;94782.47;10364167;28;1849;-73
2021/11/25 15:01:11;;;;;;;;;;;1.10;99.90;;;-0.01;100.00;94777.16;10357531;28;1975;-74
2021/11/25 15:06:21;;;;;;;;;;;1.10;99.90;;;-0.14;100.00;94787.16;10352819;28;2009;-75
2021/11/25 15:11:23;;;;;;;;;;;1.10;99.90;;;-0.29;100.00;94785.00;10364808;28;1876;-72
2021/11/25 15:16:26;;;;;;;;;;;0.90;99.90;;;-0.18;100.00;94788.69;10353845;28;1842;-72
2021/11/25 15:21:29;;;;;;;;;;;0.90;99.90;;;-0.44;100.00;94792.59;10365273;28;1989;-74
2021/11/25 15:26:32;;;;;;;;;;;0.80;99.90;;;-0.39;100.00;94808.53;10366510;28;1908;-74
2021/11/25 15:31:35;;;;;;;;;;;0.70;99.90;;;-0.74;100.00;94814.56;10360492;28;1866;-72
2021/11/25 15:36:38;;;;;;;;;;;0.60;99.90;;;-0.70;100.00;94815.75;10350124;28;1817;-73
2021/11/25 15:41:41;;;;;;;;;;;0.50;99.90;;;-0.59;100.00;94800.94;10361050;28;1906;-72
2021/11/25 15:46:44;;;;;;;;;;;0.50;99.90;;;-0.44;100.00;94805.78;10362163;28;1967;-74
2021/11/25 15:51:47;;;;;;;;;;;0.60;99.90;;;-0.50;100.00;94804.06;10364123;28;1972;-74
2021/11/25 15:56:50;;;;;;;;;;;0.60;99.90;;;-0.43;100.00;94810.03;10363932;28;1881;-74
2021/11/25 16:01:53;;;;;;;;;;;0.60;99.90;;;-0.59;100.00;94814.94;10356811;28;1984;-74
2021/11/25 16:06:56;;;;;;;;;;;0.60;99.90;;;-0.61;100.00;94809.09;10352812;28;1901;-71
2021/11/25 16:11:59;;;;;;;;;;;0.60;99.90;;;-0.54;100.00;94814.25;10358080;28;2082;-72
2021/11/25 16:17:02;;;;;;;;;;;0.60;99.90;;;-0.65;100.00;94807.91;10358264;28;1881;-72
2021/11/25 16:22:05;;;;;;;;;;;0.50;99.90;;;-0.86;100.00;94811.09;10366035;28;1910;-72
2021/11/25 16:27:08;;;;;;;;;;;0.40;99.90;;;-0.95;100.00;94820.38;10356558;28;1914;-72
2021/11/25 16:32:12;;;;;;;;;;;0.30;99.90;;;-1.05;100.00;94817.47;10359991;28;1822;-71
2021/11/25 16:37:15;;;;;;;;;;;0.20;99.90;;;-1.14;100.00;94824.91;10354150;28;1908;-74
2021/11/25 16:42:18;;;;;;;;;;;0.00;99.90;;;-1.21;100.00;94840.81;10362168;28;1952;-71
2021/11/25 16:52:52;;;;;;;;;;;0.00;99.90;;;-1.00;100.00;94841.34;10335435;28;1893;-73
2021/11/25 16:57:55;;;;;;;;;;;0.10;99.90;;;-1.04;100.00;94856.00;10356070;28;1905;-73
2021/11/25 17:03:01;;;;;;;;;;;0.10;99.90;;;-0.93;100.00;94858.69;10356823;28;1931;-72
2021/11/25 17:08:05;;;;;;;;;;;0.20;99.90;;;-0.99;100.00;94859.59;10355048;28;1889;-71
2021/11/25 17:13:08;;;;;;;;;;;0.20;99.90;;;-1.08;100.00;94860.94;10351709;28;2154;-73
2021/11/25 17:18:23;;;;;;;;;;;0.20;99.90;;;-1.26;100.00;94858.31;10362088;28;2008;-72
2021/11/25 17:23:30;;;;;;;;;;;0.10;99.90;;;-1.15;100.00;94853.09;10364187;28;1956;-72
2021/11/25 17:28:33;;;;;;;;;;;0.00;99.90;;;-0.97;100.00;94862.78;10370213;28;1915;-72
2021/11/25 17:33:36;;;;;;;;;;;0.10;99.90;;;-0.84;100.00;94857.31;10360249;28;1893;-72
2021/11/25 17:38:39;;;;;;;;;;;0.20;99.90;;;-0.96;100.00;94850.41;10367281;28;1856;-73
2021/11/25 17:43:41;;;;;;;;;;;0.30;99.90;;;-1.11;100.00;94861.38;10361926;28;2020;-71
2021/11/25 17:48:44;;;;;;;;;;;0.20;99.90;;;-1.25;100.00;94866.00;10365959;28;1928;-71
2021/11/25 17:53:47;;;;;;;;;;;0.10;99.90;;;-1.26;100.00;94867.03;10369273;28;2061;-72
2021/11/25 17:58:50;;;;;;;;;;;0.10;99.90;;;-1.16;100.00;94869.13;10373063;28;1901;-74
2021/11/25 18:03:53;;;;;;;;;;;0.10;99.90;;;-1.05;100.00;94872.84;10372307;28;1911;-73
2021/11/25 18:08:56;;;;;;;;;;;-0.10;99.90;;;-0.95;100.00;94881.84;10379968;28;2098;-71
2021/11/25 18:13:59;;;;;;;;;;;0.00;99.90;;;-0.91;100.00;94882.19;10370401;28;1889;-70
2021/11/25 18:19:03;;;;;;;;;;;0.10;99.90;;;-0.89;100.00;94882.78;10368715;28;1852;-71
2021/11/25 18:24:06;;;;;;;;;;;0.10;99.90;;;-1.12;100.00;94876.38;10366124;28;1909;-71
2021/11/25 18:29:09;;;;;;;;;;;0.00;99.90;;;-1.35;100.00;94865.72;10377402;28;1897;-70
2021/11/25 18:34:12;;;;;;;;;;;-0.20;99.90;;;-1.40;100.00;94853.22;10361422;28;1884;-69
2021/11/25 18:39:15;;;;;;;;;;;-0.30;99.90;;;-1.37;100.00;94865.16;10371883;28;1921;-70
2021/11/25 18:44:17;;;;;;;;;;;-0.30;99.90;;;-1.67;100.00;94868.50;10364130;28;2051;-71
2021/11/25 18:49:21;;;;;;;;;;;-0.50;99.90;;;-1.59;100.00;94869.25;10374578;28;2169;-71
2021/11/25 18:54:24;;;;;;;;;;;-0.50;99.90;;;-1.30;100.00;94876.41;10380271;28;2217;-71
2021/11/25 18:59:27;;;;;;;;;;;-0.40;99.90;;;-1.35;100.00;94868.34;10374590;28;2181;-71
2021/11/25 19:04:30;;;;;;;;;;;-0.40;99.90;;;-1.25;100.00;94855.47;10371821;28;1993;-72
2021/11/25 19:09:32;;;;;;;;;;;-0.20;99.90;;;-1.05;100.00;94862.31;10367455;28;2069;-70
2021/11/25 19:14:35;;;;;;;;;;;-0.20;99.90;;;-1.21;100.00;94877.72;10363538;28;1925;-70
2021/11/25 19:19:38;;;;;;;;;;;-0.10;99.90;;;-1.31;100.00;94874.81;10362292;28;1989;-71
2021/11/25 19:24:41;;;;;;;;;;;-0.20;99.90;;;-1.31;100.00;94863.47;10367847;28;2156;-70
2021/11/25 19:29:49;;;;;;;;;;;-0.20;99.90;;;-1.48;100.00;94865.88;10385953;28;1296;-70
2021/11/25 19:34:52;;;;;;;;;;;-0.30;99.90;;;-1.65;100.00;94865.69;10369783;28;1425;-70
2021/11/25 19:39:54;;;;;;;;;;;-0.40;99.90;;;-1.61;100.00;94868.66;10371807;28;1906;-71
2021/11/25 19:44:57;;;;;;;;;;;-0.50;99.90;;;-1.67;100.00;94852.69;10369983;28;1379;-71
2021/11/25 19:50:00;;;;;;;;;;;-0.60;99.90;;;-1.51;100.00;94850.50;10371307;28;1975;-70
2021/11/25 19:55:03;;;;;;;;;;;-0.50;99.90;;;-1.39;100.00;94843.47;10389566;28;1372;-70
2021/11/25 20:00:06;;;;;;;;;;;-0.40;99.90;;;-1.30;100.00;94842.13;10383110;28;1959;-69
2021/11/25 20:05:09;;;;;;;;;;;-0.30;99.90;;;-1.47;100.00;94852.47;10387785;28;1342;-70
2021/11/25 20:10:12;;;;;;;;;;;-0.40;99.90;;;-1.42;100.00;94834.16;10396331;28;1444;-70
2021/11/25 20:15:15;;;;;;;;;;;-0.40;99.90;;;-1.44;100.00;94832.78;10390491;28;1433;-72
2021/11/25 20:20:24;;;;;;;;;;;-0.30;99.90;;;-1.45;100.00;94823.28;10396113;28;1895;-71
2021/11/25 20:25:27;;;;;;;;;;;-0.30;99.90;;;-1.52;100.00;94825.19;10399886;28;1874;-71
2021/11/25 20:30:30;;;;;;;;;;;-0.30;99.90;;;-1.64;100.00;94828.56;10394933;28;1904;-71
2021/11/25 20:35:33;;;;;;;;;;;-0.40;99.90;;;-1.65;100.00;94824.31;10371989;28;1830;-72
2021/11/25 20:40:36;;;;;;;;;;;-0.60;99.90;;;-1.58;100.00;94834.78;10368598;28;1979;-71
2021/11/25 20:45:39;;;;;;;;;;;-0.50;99.90;;;-1.60;100.00;94830.75;10362357;28;1921;-72
2021/11/25 20:50:44;;;;;;;;;;;-0.50;99.90;;;-1.56;100.00;94822.19;10385251;28;2037;-71
2021/11/25 20:55:47;;;;;;;;;;;-0.50;99.90;;;-1.59;100.00;94821.81;10388144;28;1975;-71
2021/11/25 21:00:50;;;;;;;;;;;-0.50;99.90;;;-1.58;100.00;94807.63;10391327;28;2133;-72
2021/11/25 21:05:53;;;;;;;;;;;-0.50;99.90;;;-1.57;100.00;94803.97;10393238;28;1316;-71
2021/11/25 21:10:56;;;;;;;;;;;-0.50;99.90;;;-1.48;100.00;94824.50;10371439;28;3282;-71
2021/11/25 21:16:18;;;;;;;;;;;-0.50;99.90;;;-1.39;100.00;94817.13;10359133;28;1952;-71
2021/11/25 21:21:21;;;;;;;;;;;-0.40;99.90;;;-1.64;100.00;94809.31;10361931;28;1914;-71
2021/11/25 21:26:24;;;;;;;;;;;-0.40;99.90;;;-1.64;100.00;94809.31;10359330;28;1913;-70
2021/11/25 21:31:27;;;;;;;;;;;-0.60;99.90;;;-1.41;100.00;94803.34;10367690;28;1788;-71
2021/11/25 21:36:31;;;;;;;;;;;-0.50;99.90;;;-1.37;100.00;94780.78;10366116;28;1745;-70
2021/11/25 21:41:34;;;;;;;;;;;-0.40;99.90;;;-1.28;100.00;94792.59;10367084;28;1999;-69
2021/11/25 21:46:48;;;;;;;;;;;-0.40;99.90;;;-1.14;100.00;94775.59;10358600;28;1940;-71
2021/11/25 21:51:50;;;;;;;;;;;-0.20;99.90;;;-1.11;100.00;94774.34;10370047;28;1790;-69
2021/11/25 21:56:53;;;;;;;;;;;-0.20;99.90;;;-1.32;100.00;94780.91;10361651;28;1911;-70
2021/11/25 22:01:56;;;;;;;;;;;-0.10;99.90;;;-1.31;100.00;94787.81;10374588;28;1911;-71
2021/11/25 22:06:59;;;;;;;;;;;-0.20;99.90;;;-1.65;100.00;94795.34;10355225;28;1944;-71
2021/11/25 22:12:02;;;;;;;;;;;-0.40;99.90;;;-1.47;100.00;94780.50;10360928;28;1882;-71
2021/11/25 22:17:05;;;;;;;;;;;-0.50;99.90;;;-1.26;100.00;94772.13;10360228;28;1926;-71
2021/11/25 22:27:28;;;;;;;;;;;-0.30;99.90;;;-1.19;100.00;94743.81;10384671;28;1911;-71
2021/11/25 22:32:31;;;;;;;;;;;-0.10;99.90;;;-1.29;100.00;94738.28;10387314;28;1868;-71
2021/11/25 22:37:34;;;;;;;;;;;-0.20;99.90;;;-1.45;100.00;94726.56;10381626;28;1924;-70
2021/11/25 22:42:37;;;;;;;;;;;-0.30;99.90;;;-1.37;100.00;94734.13;10381644;28;1961;-70
2021/11/25 22:47:40;;;;;;;;;;;-0.30;99.90;;;-1.24;100.00;94738.41;10383661;28;1822;-71
2021/11/25 22:52:42;;;;;;;;;;;-0.30;99.90;;;-1.50;100.00;94741.44;10394426;28;1789;-70
2021/11/25 22:57:45;;;;;;;;;;;-0.30;99.90;;;-1.58;100.00;94744.38;10376765;28;1996;-70
2021/11/25 23:02:48;;;;;;;;;;;-0.40;99.90;;;-1.55;100.00;94728.91;10366310;28;1910;-71
2021/11/25 23:07:51;;;;;;;;;;;-0.50;99.90;;;-1.42;100.00;94709.47;10363204;28;1899;-71
2021/11/25 23:12:54;;;;;;;;;;;-0.40;99.90;;;-1.39;100.00;94706.41;10357969;28;1901;-71
2021/11/25 23:17:57;;;;;;;;;;;-0.40;99.90;;;-1.33;100.00;94702.88;10363704;28;1896;-71
2021/11/25 23:23:00;;;;;;;;;;;-0.40;99.90;;;-1.34;100.00;94690.69;10358193;28;1977;-71
2021/11/25 23:28:03;;;;;;;;;;;-0.40;99.90;;;-1.22;100.00;94685.44;10359011;28;2036;-71
2021/11/25 23:33:06;;;;;;;;;;;-0.30;99.90;;;-1.18;100.00;94686.59;10361146;28;1828;-71
2021/11/25 23:38:09;;;;;;;;;;;-0.20;99.90;;;-1.31;100.00;94671.78;10363818;28;1969;-71
2021/11/25 23:43:12;;;;;;;;;;;-0.20;99.90;;;-1.28;100.00;94666.06;10362017;28;1902;-71
2021/11/25 23:48:15;;;;;;;;;;;-0.20;99.90;;;-1.18;100.00;94665.50;10362034;28;1842;-71
2021/11/25 23:53:18;;;;;;;;;;;-0.20;99.90;;;-1.06;100.00;94654.97;10361618;28;1896;-71
2021/11/25 23:58:21;;;;;;;;;;;-0.20;99.90;;;-1.02;100.00;94629.72;10363722;28;1878;-74
